Nearby METAR Reports

 

KOXC - Oxford/Waterbury, Connecticut, USA
Distance from station: SE 8mi, 12km
Updated: Sat, 27-Nov-2021 5:51am EST
Overcast
Overcast
 Wind from W
Wind: W 9 mph , 15 km/h
Temperature: 30°F , -1°C
Wind Chill: 22°F , -6°C
Dew Point: 23°F , -5°C
Humidity: 75%
Barometer: 29.69 inHg , 1005.4 hPa
Clouds: Overcast
Visibility: 10 miles , 16 km
Cloud details: Overcast 3500 ft
2021/11/27 10:51 KOXC 271051Z AUTO 28008KT 10SM OVC035 M01/M05 A2969 RMK AO2 SLP074 T10061050 FZRANO
KDXR - Danbury, Connecticut, USA
Distance from station: SW 19mi, 30km
Updated: Sat, 27-Nov-2021 5:53am EST
Clear
Clear
 Wind from W
Wind: W 13 mph , 20 km/h, Gust: 21 mph , 33 km/h
Temperature: 36°F , 2°C
Wind Chill: 27°F , -3°C
Dew Point: 21°F , -6°C
Humidity: 56%
Barometer: 29.72 inHg , 1006.4 hPa
Clouds: Clear
Visibility: 10 miles , 16 km
2021/11/27 10:53 KDXR 271053Z AUTO 28011G18KT 10SM CLR 02/M06 A2972 RMK AO2 SLP068 T00171056
 
KMMK - Meriden, Connecticut, USA
Distance from station: E 20mi, 33km
Updated: Sat, 27-Nov-2021 5:53am EST
Few Clouds
Few Clouds
 Wind from NW
Wind: NW 5 mph , 7 km/h
Temperature: 32°F , 0°C
Wind Chill: 27°F , -3°C
Dew Point: 25°F , -4°C
Humidity: 75%
Barometer: 29.70 inHg , 1005.8 hPa
Clouds: Few Clouds
Visibility: 10 miles , 16 km
Cloud details: Few Clouds 3800 ft
2021/11/27 10:53 KMMK 271053Z AUTO 32004KT 10SM FEW038 00/M04 A2970 RMK AO2 SLP058 T00001044
KBDR - Bridgeport, Connecticut, USA
Distance from station: S 27mi, 44km
Updated: Sat, 27-Nov-2021 5:52am EST
Clear
Clear
 Wind from W
Wind: W 14 mph , 22 km/h, Gust: 20 mph , 31 km/h
Temperature: 36°F , 2°C
Wind Chill: 27°F , -3°C
Dew Point: 23°F , -5°C
Humidity: 60%
Barometer: 29.73 inHg , 1006.8 hPa
Clouds: Clear
Visibility: 10 miles , 16 km
2021/11/27 10:52 KBDR 271052Z AUTO 28012G17KT 10SM CLR 02/M05 A2973 RMK AO2 SLP067 T00171050
 
KHVN - New Haven/Tweed, Connecticut, USA
Distance from station: SE 27mi, 44km
Updated: Sat, 27-Nov-2021 5:53am EST
Clear
Clear
 Wind from W
Wind: W 8 mph , 13 km/h
Temperature: 37°F , 3°C
Wind Chill: 31°F , -1°C
Dew Point: 25°F , -4°C
Humidity: 60%
Barometer: 29.71 inHg , 1006.1 hPa
Clouds: Clear
Visibility: 10 miles , 16 km
2021/11/27 10:53 KHVN 271053Z 28007KT 10SM CLR 03/M04 A2971 RMK AO2 SLP061 T00281039 $
KHFD - Hartford/Brainar, Connecticut, USA
Distance from station: ENE 32mi, 52km
Updated: Sat, 27-Nov-2021 5:53am EST
Mostly cloudy
Mostly cloudy
 Wind from NW
Wind: NW 13 mph , 20 km/h, Gust: 18 mph , 30 km/h
Temperature: 36°F , 2°C
Wind Chill: 27°F , -3°C
Dew Point: 21°F , -6°C
Humidity: 56%
Barometer: 29.69 inHg , 1005.4 hPa
Clouds: Mostly cloudy
Visibility: 9 miles , 14 km
Cloud details: Mostly cloudy 3600 ft
2021/11/27 10:53 KHFD 271053Z 31011G16KT 9SM BKN036 02/M06 A2969 RMK AO2 SNB11E50 SLP055 P0000 T00221056
 
KPOU - Poughkeepsie, New York, USA
Distance from station: W 35mi, 56km
Updated: Sat, 27-Nov-2021 5:53am EST
Overcast
Overcast
 Wind from W
Wind: W 13 mph , 20 km/h
Temperature: 36°F , 2°C
Wind Chill: 27°F , -3°C
Dew Point: 23°F , -5°C
Humidity: 60%
Barometer: 29.75 inHg , 1007.5 hPa
Clouds: Overcast
Visibility: 10 miles , 16 km
Cloud details: Mostly cloudy 4700 ft
Overcast 5500 ft
2021/11/27 10:53 KPOU 271053Z AUTO 27011KT 10SM BKN047 OVC055 02/M05 A2975 RMK AO2 SLP070 T00171050
KBDL - Windsor Locks, Connecticut, USA
Distance from station: NE 38mi, 62km
Updated: Sat, 27-Nov-2021 5:51am EST
Overcast
Overcast
 Wind from NW
Wind: NW 16 mph , 26 km/h, Gust: 23 mph , 37 km/h
Temperature: 34°F , 1°C
Wind Chill: 24°F , -4°C
Dew Point: 23°F , -5°C
Humidity: 65%
Barometer: 29.67 inHg , 1004.7 hPa
Clouds: Overcast
Visibility: 10 miles , 16 km
Cloud details: Overcast 3100 ft
2021/11/27 10:51 KBDL 271051Z 31014G20KT 10SM OVC031 01/M05 A2967 RMK AO2 SLP050 T00111050
 
KSNC - Chester, Connecticut, USA
Distance from station: ESE 39mi, 63km
Updated: Sat, 27-Nov-2021 6:15am EST
Partly cloudy
Partly cloudy
 
Temperature: 32°F , 0°C
Dew Point: 25°F , -4°C
Humidity: 75%
Barometer: 29.69 inHg , 1005.4 hPa
Clouds: Partly cloudy
Visibility: 10 miles , 16 km
Cloud details: Partly cloudy 3300 ft
2021/11/27 11:15 KSNC 271115Z AUTO 10SM SCT033 00/M04 A2969 RMK AO2
KHPN - White Plains, New York, USA
Distance from station: SW 42mi, 67km
Updated: Sat, 27-Nov-2021 5:56am EST
Mostly cloudy
Mostly cloudy
 Wind from W
Wind: W 18 mph , 30 km/h, Gust: 31 mph , 50 km/h
Temperature: 34°F , 1°C
Wind Chill: 23°F , -5°C
Dew Point: 21°F , -6°C
Humidity: 60%
Barometer: 29.74 inHg , 1007.1 hPa
Clouds: Mostly cloudy
Visibility: 10 miles , 16 km
Cloud details: Mostly cloudy 3300 ft
2021/11/27 10:56 KHPN 271056Z 28016G27KT 10SM BKN033 01/M06 A2974 RMK AO2 PK WND 28029/1043 SLP077 T00111061
 
KSWF - Newburgh/Stewart, New York, USA
Distance from station: W 45mi, 72km
Updated: Sat, 27-Nov-2021 5:45am EST
Overcast
Overcast
 Wind from WNW
Wind: WNW 25 mph , 41 km/h
Temperature: 34°F , 1°C
Wind Chill: 21°F , -6°C
Dew Point: 23°F , -5°C
Humidity: 65%
Barometer: 29.75 inHg , 1007.5 hPa
Clouds: Overcast
Visibility: 10 miles , 16 km
Cloud details: Overcast 3000 ft
2021/11/27 10:45 KSWF 271045Z 29022KT 10SM OVC030 01/M05 A2975
KBAF - Westfield, Massachusetts, USA
Distance from station: NNE 50mi, 80km
Updated: Sat, 27-Nov-2021 6:14am EST
Overcast
Overcast
 Wind from NW
Wind: NW 20 mph , 31 km/h, Gust: 35 mph , 56 km/h
Temperature: 32°F , 0°C
Wind Chill: 20°F , -7°C
Dew Point: 21°F , -6°C
Humidity: 64%
Barometer: 29.66 inHg , 1004.4 hPa
Clouds: Overcast
Visibility: 10 miles , 16 km
Cloud details: Overcast 3300 ft
2021/11/27 11:14 KBAF 271114Z AUTO 32017G30KT 10SM OVC033 00/M06 A2966 RMK AO2 PK WND 34030/1112 T00001061